Portada
METAR-TAF:

METAR-TAF

Aeroports :

Juliaca, Perú

latitud: 15-29S, longitud: 070-09W, altitud: 3826 m

METAR: manca

Hora: 21:31 (02:31 UTC)

Pronòstic

L'informe es va fer fa 9 hores i 31 minuts, a les 17:00 UTC
Pronòstic vàlid del 25 a les 18 UTC al 26 a les 18 UTC
Vent 11 kt del Nord-Oest
Visibilitat 10 km o més
Núvols disperses a una alçada de 2000 ft
Cel ennuvolat a una alçada de 8000 ft
Evolucionant progressivament
l' 25 a les 22 UTC al 25 a les 24 UTC
Vent 5 kt del Oest

TAF: SPJL 251700Z 2518/2618 32011KT 9999 SCT020 BKN080 TX16/2519Z TNM02/2610Z BECMG 2522/2524 26005KT

Observacions i pronòstics meteorològics de més de 4000 aeroports (METAR i TAF).

Les estacions disponibles són els punts grocs i vermells al mapa.

Posi el ratolí al punt desitjat per veure el nom de l'estació.

Feu clic per veure les observacions i els pronòstics meteorològics.

Per canviar el mapa: feu clic els botons verds amb una creu de color negre per apropar; al botó verd amb un guió per allunyar la imatge; o en les fletxes verdes per a mapes adjacents.


METAR-TAF: